sensor_id;sensor_type;location;lat;lon;timestamp;P1;durP1;ratioP1;P2;durP2;ratioP2
14191;SDS011;7177;48.572;7.838;2023-02-08T00:01:40;26.07;;;18.03;;
14191;SDS011;7177;48.572;7.838;2023-02-08T00:04:05;26.10;;;16.47;;
14191;SDS011;7177;48.572;7.838;2023-02-08T00:06:31;21.13;;;15.40;;
14191;SDS011;7177;48.572;7.838;2023-02-08T00:08:56;20.13;;;13.90;;
14191;SDS011;7177;48.572;7.838;2023-02-08T00:11:22;24.17;;;18.67;;
14191;SDS011;7177;48.572;7.838;2023-02-08T00:13:47;28.13;;;22.33;;
14191;SDS011;7177;48.572;7.838;2023-02-08T00:16:13;31.97;;;23.47;;
14191;SDS011;7177;48.572;7.838;2023-02-08T00:18:39;27.60;;;19.40;;
14191;SDS011;7177;48.572;7.838;2023-02-08T00:21:11;31.10;;;19.80;;
14191;SDS011;7177;48.572;7.838;2023-02-08T00:23:38;23.65;;;16.77;;
14191;SDS011;7177;48.572;7.838;2023-02-08T00:26:04;21.33;;;16.13;;
14191;SDS011;7177;48.572;7.838;2023-02-08T00:28:30;23.55;;;17.65;;
14191;SDS011;7177;48.572;7.838;2023-02-08T00:30:56;23.57;;;16.07;;
14191;SDS011;7177;48.572;7.838;2023-02-08T00:33:21;20.40;;;14.80;;
14191;SDS011;7177;48.572;7.838;2023-02-08T00:35:47;23.67;;;17.80;;
14191;SDS011;7177;48.572;7.838;2023-02-08T00:38:12;22.63;;;17.63;;
14191;SDS011;7177;48.572;7.838;2023-02-08T00:40:38;23.43;;;17.87;;
14191;SDS011;7177;48.572;7.838;2023-02-08T00:43:03;27.70;;;20.60;;
14191;SDS011;7177;48.572;7.838;2023-02-08T00:45:29;25.77;;;18.77;;
14191;SDS011;7177;48.572;7.838;2023-02-08T00:47:57;26.77;;;18.85;;
14191;SDS011;7177;48.572;7.838;2023-02-08T00:50:22;22.97;;;14.20;;
14191;SDS011;7177;48.572;7.838;2023-02-08T00:52:48;18.13;;;12.80;;
14191;SDS011;7177;48.572;7.838;2023-02-08T00:55:13;21.80;;;14.57;;
14191;SDS011;7177;48.572;7.838;2023-02-08T00:57:39;18.70;;;13.67;;
14191;SDS011;7177;48.572;7.838;2023-02-08T01:00:04;18.33;;;13.20;;
14191;SDS011;7177;48.572;7.838;2023-02-08T01:02:31;19.40;;;13.85;;
14191;SDS011;7177;48.572;7.838;2023-02-08T01:04:57;17.47;;;12.83;;
14191;SDS011;7177;48.572;7.838;2023-02-08T01:07:22;18.10;;;12.77;;
14191;SDS011;7177;48.572;7.838;2023-02-08T01:09:48;18.00;;;12.70;;
14191;SDS011;7177;48.572;7.838;2023-02-08T01:12:13;20.03;;;13.53;;
14191;SDS011;7177;48.572;7.838;2023-02-08T01:14:39;19.97;;;13.37;;
14191;SDS011;7177;48.572;7.838;2023-02-08T01:17:05;17.77;;;11.87;;
14191;SDS011;7177;48.572;7.838;2023-02-08T01:19:31;19.33;;;12.55;;
14191;SDS011;7177;48.572;7.838;2023-02-08T01:21:57;15.45;;;11.57;;
14191;SDS011;7177;48.572;7.838;2023-02-08T01:24:23;19.60;;;13.37;;
14191;SDS011;7177;48.572;7.838;2023-02-08T01:26:48;18.17;;;12.70;;
14191;SDS011;7177;48.572;7.838;2023-02-08T01:29:14;20.00;;;12.57;;
14191;SDS011;7177;48.572;7.838;2023-02-08T01:31:41;18.73;;;12.63;;
14191;SDS011;7177;48.572;7.838;2023-02-08T01:34:08;19.63;;;13.55;;
14191;SDS011;7177;48.572;7.838;2023-02-08T01:36:34;17.67;;;12.55;;
14191;SDS011;7177;48.572;7.838;2023-02-08T01:39:01;17.70;;;12.88;;
14191;SDS011;7177;48.572;7.838;2023-02-08T01:41:29;20.33;;;13.05;;
14191;SDS011;7177;48.572;7.838;2023-02-08T01:44:04;19.17;;;13.75;;
14191;SDS011;7177;48.572;7.838;2023-02-08T01:46:37;18.70;;;13.48;;
14191;SDS011;7177;48.572;7.838;2023-02-08T01:49:11;19.67;;;12.95;;
14191;SDS011;7177;48.572;7.838;2023-02-08T01:51:46;19.13;;;12.93;;
14191;SDS011;7177;48.572;7.838;2023-02-08T01:54:15;17.77;;;12.98;;
14191;SDS011;7177;48.572;7.838;2023-02-08T01:56:44;18.73;;;13.20;;
14191;SDS011;7177;48.572;7.838;2023-02-08T01:59:12;17.15;;;12.48;;
14191;SDS011;7177;48.572;7.838;2023-02-08T02:01:44;21.00;;;14.25;;
14191;SDS011;7177;48.572;7.838;2023-02-08T02:04:11;20.13;;;13.70;;
14191;SDS011;7177;48.572;7.838;2023-02-08T02:06:41;21.20;;;14.73;;
14191;SDS011;7177;48.572;7.838;2023-02-08T02:11:41;24.27;;;15.93;;
14191;SDS011;7177;48.572;7.838;2023-02-08T02:14:08;20.08;;;14.88;;
14191;SDS011;7177;48.572;7.838;2023-02-08T02:16:34;28.63;;;15.32;;
14191;SDS011;7177;48.572;7.838;2023-02-08T02:19:00;27.30;;;16.08;;
14191;SDS011;7177;48.572;7.838;2023-02-08T02:21:30;27.70;;;15.80;;
14191;SDS011;7177;48.572;7.838;2023-02-08T02:32:25;23.25;;;15.20;;
14191;SDS011;7177;48.572;7.838;2023-02-08T02:35:07;19.85;;;14.07;;
14191;SDS011;7177;48.572;7.838;2023-02-08T02:43:25;21.70;;;14.10;;
14191;SDS011;7177;48.572;7.838;2023-02-08T02:52:03;26.90;;;16.48;;
14191;SDS011;7177;48.572;7.838;2023-02-08T02:54:38;22.55;;;14.15;;
14191;SDS011;7177;48.572;7.838;2023-02-08T02:57:12;22.85;;;14.23;;
14191;SDS011;7177;48.572;7.838;2023-02-08T02:59:41;21.50;;;13.55;;
14191;SDS011;7177;48.572;7.838;2023-02-08T03:02:09;19.83;;;13.93;;
14191;SDS011;7177;48.572;7.838;2023-02-08T03:21:57;22.38;;;14.27;;
14191;SDS011;7177;48.572;7.838;2023-02-08T03:24:10;20.45;;;14.10;;
14191;SDS011;7177;48.572;7.838;2023-02-08T03:26:43;22.00;;;13.63;;
14191;SDS011;7177;48.572;7.838;2023-02-08T03:29:24;19.52;;;13.27;;
14191;SDS011;7177;48.572;7.838;2023-02-08T03:32:03;19.83;;;13.27;;
14191;SDS011;7177;48.572;7.838;2023-02-08T03:34:40;19.48;;;13.32;;
14191;SDS011;7177;48.572;7.838;2023-02-08T03:37:16;24.85;;;14.35;;
14191;SDS011;7177;48.572;7.838;2023-02-08T03:39:46;18.70;;;13.55;;
14191;SDS011;7177;48.572;7.838;2023-02-08T03:42:16;17.05;;;12.13;;
14191;SDS011;7177;48.572;7.838;2023-02-08T03:44:49;20.50;;;13.40;;
14191;SDS011;7177;48.572;7.838;2023-02-08T03:47:23;20.73;;;12.65;;
14191;SDS011;7177;48.572;7.838;2023-02-08T03:49:51;22.25;;;14.13;;
14191;SDS011;7177;48.572;7.838;2023-02-08T03:52:19;19.42;;;13.25;;
14191;SDS011;7177;48.572;7.838;2023-02-08T03:54:54;20.50;;;13.80;;
14191;SDS011;7177;48.572;7.838;2023-02-08T03:57:32;23.13;;;14.88;;
14191;SDS011;7177;48.572;7.838;2023-02-08T04:00:06;21.42;;;13.85;;
14191;SDS011;7177;48.572;7.838;2023-02-08T04:02:36;21.98;;;15.52;;
14191;SDS011;7177;48.572;7.838;2023-02-08T04:05:05;17.95;;;13.60;;
14191;SDS011;7177;48.572;7.838;2023-02-08T04:07:31;20.05;;;14.18;;
14191;SDS011;7177;48.572;7.838;2023-02-08T04:09:57;20.47;;;13.50;;
14191;SDS011;7177;48.572;7.838;2023-02-08T04:12:23;18.13;;;13.10;;
14191;SDS011;7177;48.572;7.838;2023-02-08T04:14:48;20.40;;;13.70;;
14191;SDS011;7177;48.572;7.838;2023-02-08T04:17:14;22.90;;;14.67;;
14191;SDS011;7177;48.572;7.838;2023-02-08T04:19:39;22.50;;;15.33;;
14191;SDS011;7177;48.572;7.838;2023-02-08T04:22:05;19.60;;;13.87;;
14191;SDS011;7177;48.572;7.838;2023-02-08T04:24:31;20.37;;;14.60;;
14191;SDS011;7177;48.572;7.838;2023-02-08T04:26:56;37.67;;;22.47;;
14191;SDS011;7177;48.572;7.838;2023-02-08T04:29:22;24.20;;;15.83;;
14191;SDS011;7177;48.572;7.838;2023-02-08T04:31:47;22.47;;;14.93;;
14191;SDS011;7177;48.572;7.838;2023-02-08T04:34:13;20.30;;;13.83;;
14191;SDS011;7177;48.572;7.838;2023-02-08T04:36:39;21.90;;;14.95;;
14191;SDS011;7177;48.572;7.838;2023-02-08T04:39:05;21.93;;;14.87;;
14191;SDS011;7177;48.572;7.838;2023-02-08T04:41:30;26.67;;;14.93;;
14191;SDS011;7177;48.572;7.838;2023-02-08T04:43:56;22.17;;;14.93;;
14191;SDS011;7177;48.572;7.838;2023-02-08T04:46:21;20.73;;;14.07;;
14191;SDS011;7177;48.572;7.838;2023-02-08T04:48:47;18.70;;;13.63;;
14191;SDS011;7177;48.572;7.838;2023-02-08T04:51:13;23.02;;;14.57;;
14191;SDS011;7177;48.572;7.838;2023-02-08T04:53:38;24.43;;;13.93;;
14191;SDS011;7177;48.572;7.838;2023-02-08T04:56:04;19.83;;;14.20;;
14191;SDS011;7177;48.572;7.838;2023-02-08T04:58:30;22.23;;;13.77;;
14191;SDS011;7177;48.572;7.838;2023-02-08T05:00:55;17.20;;;12.43;;
14191;SDS011;7177;48.572;7.838;2023-02-08T05:03:21;22.00;;;14.97;;
14191;SDS011;7177;48.572;7.838;2023-02-08T05:05:52;22.13;;;14.13;;
14191;SDS011;7177;48.572;7.838;2023-02-08T05:08:21;18.27;;;12.88;;
14191;SDS011;7177;48.572;7.838;2023-02-08T05:10:46;16.10;;;11.20;;
14191;SDS011;7177;48.572;7.838;2023-02-08T05:13:12;16.23;;;11.73;;
14191;SDS011;7177;48.572;7.838;2023-02-08T05:15:37;19.20;;;12.70;;
14191;SDS011;7177;48.572;7.838;2023-02-08T05:18:03;18.57;;;12.87;;
14191;SDS011;7177;48.572;7.838;2023-02-08T05:20:28;17.07;;;12.63;;
14191;SDS011;7177;48.572;7.838;2023-02-08T05:22:54;19.43;;;13.53;;
14191;SDS011;7177;48.572;7.838;2023-02-08T05:25:20;19.53;;;12.37;;
14191;SDS011;7177;48.572;7.838;2023-02-08T05:27:45;17.40;;;12.60;;
14191;SDS011;7177;48.572;7.838;2023-02-08T05:30:11;26.73;;;13.63;;
14191;SDS011;7177;48.572;7.838;2023-02-08T05:32:36;18.93;;;12.53;;
14191;SDS011;7177;48.572;7.838;2023-02-08T05:35:02;17.43;;;12.00;;
14191;SDS011;7177;48.572;7.838;2023-02-08T05:37:28;17.53;;;12.20;;
14191;SDS011;7177;48.572;7.838;2023-02-08T05:39:53;17.50;;;11.70;;
14191;SDS011;7177;48.572;7.838;2023-02-08T05:42:19;17.87;;;11.87;;
14191;SDS011;7177;48.572;7.838;2023-02-08T05:44:44;19.43;;;12.37;;
14191;SDS011;7177;48.572;7.838;2023-02-08T05:47:10;20.23;;;13.27;;
14191;SDS011;7177;48.572;7.838;2023-02-08T05:49:35;21.73;;;13.30;;
14191;SDS011;7177;48.572;7.838;2023-02-08T05:52:01;21.20;;;13.67;;
14191;SDS011;7177;48.572;7.838;2023-02-08T05:54:26;23.77;;;13.53;;
14191;SDS011;7177;48.572;7.838;2023-02-08T05:56:51;18.77;;;12.53;;
14191;SDS011;7177;48.572;7.838;2023-02-08T05:59:17;23.37;;;14.30;;
14191;SDS011;7177;48.572;7.838;2023-02-08T06:01:42;19.80;;;13.13;;
14191;SDS011;7177;48.572;7.838;2023-02-08T06:04:08;20.00;;;13.43;;
14191;SDS011;7177;48.572;7.838;2023-02-08T06:06:33;18.17;;;12.53;;
14191;SDS011;7177;48.572;7.838;2023-02-08T06:08:59;20.50;;;13.23;;
14191;SDS011;7177;48.572;7.838;2023-02-08T06:11:25;19.07;;;12.97;;
14191;SDS011;7177;48.572;7.838;2023-02-08T06:13:51;21.65;;;13.90;;
14191;SDS011;7177;48.572;7.838;2023-02-08T06:16:17;18.87;;;12.93;;
14191;SDS011;7177;48.572;7.838;2023-02-08T06:18:42;19.17;;;12.60;;
14191;SDS011;7177;48.572;7.838;2023-02-08T06:21:08;22.77;;;14.27;;
14191;SDS011;7177;48.572;7.838;2023-02-08T06:23:34;19.90;;;12.87;;
14191;SDS011;7177;48.572;7.838;2023-02-08T06:25:59;22.83;;;14.23;;
14191;SDS011;7177;48.572;7.838;2023-02-08T06:28:25;21.97;;;13.67;;
14191;SDS011;7177;48.572;7.838;2023-02-08T06:30:51;23.20;;;15.47;;
14191;SDS011;7177;48.572;7.838;2023-02-08T06:33:17;20.73;;;13.70;;
14191;SDS011;7177;48.572;7.838;2023-02-08T06:35:43;22.80;;;15.35;;
14191;SDS011;7177;48.572;7.838;2023-02-08T06:38:10;21.20;;;14.63;;
14191;SDS011;7177;48.572;7.838;2023-02-08T06:40:36;23.67;;;14.60;;
14191;SDS011;7177;48.572;7.838;2023-02-08T06:43:01;23.83;;;14.03;;
14191;SDS011;7177;48.572;7.838;2023-02-08T06:45:27;19.80;;;13.37;;
14191;SDS011;7177;48.572;7.838;2023-02-08T06:47:52;22.07;;;15.13;;
14191;SDS011;7177;48.572;7.838;2023-02-08T06:50:18;22.40;;;15.30;;
14191;SDS011;7177;48.572;7.838;2023-02-08T06:52:43;24.57;;;15.67;;
14191;SDS011;7177;48.572;7.838;2023-02-08T06:55:09;20.40;;;13.83;;
14191;SDS011;7177;48.572;7.838;2023-02-08T06:57:34;23.73;;;15.23;;
14191;SDS011;7177;48.572;7.838;2023-02-08T07:00:00;22.77;;;14.93;;
14191;SDS011;7177;48.572;7.838;2023-02-08T07:02:26;25.10;;;15.77;;
14191;SDS011;7177;48.572;7.838;2023-02-08T07:04:51;23.07;;;14.67;;
14191;SDS011;7177;48.572;7.838;2023-02-08T07:07:17;21.53;;;14.90;;
14191;SDS011;7177;48.572;7.838;2023-02-08T07:09:43;23.13;;;14.87;;
14191;SDS011;7177;48.572;7.838;2023-02-08T07:12:09;23.87;;;14.63;;
14191;SDS011;7177;48.572;7.838;2023-02-08T07:14:35;25.13;;;15.07;;
14191;SDS011;7177;48.572;7.838;2023-02-08T07:17:03;25.55;;;15.80;;
14191;SDS011;7177;48.572;7.838;2023-02-08T07:19:29;19.53;;;13.77;;
14191;SDS011;7177;48.572;7.838;2023-02-08T07:21:55;22.80;;;14.97;;
14191;SDS011;7177;48.572;7.838;2023-02-08T07:24:22;24.00;;;14.75;;
14191;SDS011;7177;48.572;7.838;2023-02-08T07:26:48;23.45;;;14.57;;
14191;SDS011;7177;48.572;7.838;2023-02-08T07:29:13;23.10;;;13.97;;
14191;SDS011;7177;48.572;7.838;2023-02-08T07:31:39;24.47;;;14.97;;
14191;SDS011;7177;48.572;7.838;2023-02-08T07:34:04;26.40;;;15.83;;
14191;SDS011;7177;48.572;7.838;2023-02-08T07:36:30;26.00;;;16.40;;
14191;SDS011;7177;48.572;7.838;2023-02-08T07:38:55;22.47;;;15.73;;
14191;SDS011;7177;48.572;7.838;2023-02-08T07:41:21;22.07;;;14.70;;
14191;SDS011;7177;48.572;7.838;2023-02-08T07:43:46;19.87;;;14.13;;
14191;SDS011;7177;48.572;7.838;2023-02-08T07:46:16;22.60;;;14.07;;
14191;SDS011;7177;48.572;7.838;2023-02-08T07:48:44;22.58;;;13.93;;
14191;SDS011;7177;48.572;7.838;2023-02-08T07:51:10;21.53;;;15.03;;
14191;SDS011;7177;48.572;7.838;2023-02-08T07:53:36;20.42;;;14.10;;
14191;SDS011;7177;48.572;7.838;2023-02-08T07:56:02;18.77;;;13.18;;
14191;SDS011;7177;48.572;7.838;2023-02-08T07:58:28;20.20;;;13.93;;
14191;SDS011;7177;48.572;7.838;2023-02-08T08:00:54;22.13;;;15.00;;
14191;SDS011;7177;48.572;7.838;2023-02-08T08:03:19;22.27;;;14.90;;
14191;SDS011;7177;48.572;7.838;2023-02-08T08:05:45;20.40;;;13.90;;
14191;SDS011;7177;48.572;7.838;2023-02-08T08:08:11;20.53;;;13.57;;
14191;SDS011;7177;48.572;7.838;2023-02-08T08:10:37;17.88;;;13.50;;
14191;SDS011;7177;48.572;7.838;2023-02-08T08:13:03;19.20;;;13.02;;
14191;SDS011;7177;48.572;7.838;2023-02-08T08:15:29;23.73;;;14.52;;
14191;SDS011;7177;48.572;7.838;2023-02-08T08:17:55;20.52;;;14.68;;
14191;SDS011;7177;48.572;7.838;2023-02-08T08:20:21;22.17;;;14.63;;
14191;SDS011;7177;48.572;7.838;2023-02-08T08:22:47;18.83;;;14.25;;
14191;SDS011;7177;48.572;7.838;2023-02-08T08:25:13;19.13;;;13.27;;
14191;SDS011;7177;48.572;7.838;2023-02-08T08:27:39;20.42;;;13.32;;
14191;SDS011;7177;48.572;7.838;2023-02-08T08:30:06;17.30;;;12.90;;
14191;SDS011;7177;48.572;7.838;2023-02-08T08:32:32;21.10;;;13.20;;
14191;SDS011;7177;48.572;7.838;2023-02-08T08:34:58;19.50;;;13.00;;
14191;SDS011;7177;48.572;7.838;2023-02-08T08:37:23;19.07;;;12.83;;
14191;SDS011;7177;48.572;7.838;2023-02-08T08:39:49;18.27;;;12.13;;
14191;SDS011;7177;48.572;7.838;2023-02-08T08:42:14;21.53;;;13.70;;
14191;SDS011;7177;48.572;7.838;2023-02-08T08:44:40;38.43;;;19.77;;
14191;SDS011;7177;48.572;7.838;2023-02-08T08:47:07;21.42;;;14.18;;
14191;SDS011;7177;48.572;7.838;2023-02-08T08:49:32;19.90;;;12.95;;
14191;SDS011;7177;48.572;7.838;2023-02-08T08:51:58;17.57;;;12.33;;
14191;SDS011;7177;48.572;7.838;2023-02-08T08:54:24;17.63;;;12.13;;
14191;SDS011;7177;48.572;7.838;2023-02-08T08:56:49;20.07;;;12.37;;
14191;SDS011;7177;48.572;7.838;2023-02-08T08:59:15;21.10;;;13.37;;
14191;SDS011;7177;48.572;7.838;2023-02-08T09:01:40;17.97;;;12.90;;
14191;SDS011;7177;48.572;7.838;2023-02-08T09:04:07;19.77;;;12.47;;
14191;SDS011;7177;48.572;7.838;2023-02-08T09:06:33;19.20;;;12.17;;
14191;SDS011;7177;48.572;7.838;2023-02-08T09:08:59;21.63;;;12.67;;
14191;SDS011;7177;48.572;7.838;2023-02-08T09:11:25;22.30;;;12.17;;
14191;SDS011;7177;48.572;7.838;2023-02-08T09:13:51;17.57;;;12.43;;
14191;SDS011;7177;48.572;7.838;2023-02-08T09:16:19;15.03;;;11.53;;
14191;SDS011;7177;48.572;7.838;2023-02-08T09:18:45;26.63;;;16.90;;
14191;SDS011;7177;48.572;7.838;2023-02-08T09:21:14;17.63;;;12.13;;
14191;SDS011;7177;48.572;7.838;2023-02-08T09:23:42;18.40;;;12.23;;
14191;SDS011;7177;48.572;7.838;2023-02-08T09:26:09;19.50;;;12.93;;
14191;SDS011;7177;48.572;7.838;2023-02-08T09:28:36;18.47;;;11.83;;
14191;SDS011;7177;48.572;7.838;2023-02-08T09:31:08;17.83;;;12.17;;
14191;SDS011;7177;48.572;7.838;2023-02-08T09:33:34;16.77;;;11.50;;
14191;SDS011;7177;48.572;7.838;2023-02-08T09:36:01;16.70;;;12.07;;
14191;SDS011;7177;48.572;7.838;2023-02-08T09:38:26;17.30;;;11.43;;
14191;SDS011;7177;48.572;7.838;2023-02-08T09:46:58;17.80;;;11.93;;
14191;SDS011;7177;48.572;7.838;2023-02-08T09:49:39;19.67;;;11.70;;
14191;SDS011;7177;48.572;7.838;2023-02-08T09:52:15;18.13;;;13.10;;
14191;SDS011;7177;48.572;7.838;2023-02-08T09:54:45;16.43;;;12.30;;
14191;SDS011;7177;48.572;7.838;2023-02-08T09:57:17;18.53;;;11.77;;
14191;SDS011;7177;48.572;7.838;2023-02-08T09:59:51;20.20;;;11.47;;
14191;SDS011;7177;48.572;7.838;2023-02-08T10:02:25;17.87;;;10.40;;
14191;SDS011;7177;48.572;7.838;2023-02-08T10:07:27;18.17;;;10.90;;
14191;SDS011;7177;48.572;7.838;2023-02-08T10:09:55;18.60;;;11.90;;
14191;SDS011;7177;48.572;7.838;2023-02-08T10:20:25;14.77;;;10.40;;
14191;SDS011;7177;48.572;7.838;2023-02-08T10:29:06;17.77;;;10.67;;
14191;SDS011;7177;48.572;7.838;2023-02-08T10:34:41;18.40;;;11.93;;
14191;SDS011;7177;48.572;7.838;2023-02-08T10:37:18;16.70;;;10.30;;
14191;SDS011;7177;48.572;7.838;2023-02-08T10:39:49;14.10;;;10.03;;
14191;SDS011;7177;48.572;7.838;2023-02-08T10:42:17;14.20;;;10.47;;
14191;SDS011;7177;48.572;7.838;2023-02-08T10:44:53;22.60;;;11.10;;
14191;SDS011;7177;48.572;7.838;2023-02-08T10:52:27;17.10;;;10.37;;
14191;SDS011;7177;48.572;7.838;2023-02-08T10:54:54;15.07;;;10.70;;
14191;SDS011;7177;48.572;7.838;2023-02-08T10:57:23;14.30;;;9.80;;
14191;SDS011;7177;48.572;7.838;2023-02-08T10:59:54;14.70;;;10.20;;
14191;SDS011;7177;48.572;7.838;2023-02-08T11:02:25;17.13;;;10.00;;
14191;SDS011;7177;48.572;7.838;2023-02-08T11:04:59;14.33;;;9.77;;
14191;SDS011;7177;48.572;7.838;2023-02-08T11:07:33;14.50;;;9.90;;
14191;SDS011;7177;48.572;7.838;2023-02-08T11:10:19;14.37;;;10.47;;
14191;SDS011;7177;48.572;7.838;2023-02-08T11:15:20;16.83;;;11.30;;
14191;SDS011;7177;48.572;7.838;2023-02-08T11:17:52;14.53;;;10.63;;
14191;SDS011;7177;48.572;7.838;2023-02-08T11:20:20;15.53;;;10.90;;
14191;SDS011;7177;48.572;7.838;2023-02-08T11:22:48;12.60;;;9.43;;
14191;SDS011;7177;48.572;7.838;2023-02-08T11:25:29;14.67;;;9.63;;
14191;SDS011;7177;48.572;7.838;2023-02-08T11:28:01;17.03;;;10.37;;
14191;SDS011;7177;48.572;7.838;2023-02-08T11:30:27;16.87;;;10.73;;
14191;SDS011;7177;48.572;7.838;2023-02-08T11:33:13;14.30;;;10.13;;
14191;SDS011;7177;48.572;7.838;2023-02-08T11:35:42;13.63;;;9.43;;
14191;SDS011;7177;48.572;7.838;2023-02-08T11:38:16;12.93;;;9.23;;
14191;SDS011;7177;48.572;7.838;2023-02-08T11:40:43;15.20;;;9.93;;
14191;SDS011;7177;48.572;7.838;2023-02-08T11:43:25;13.93;;;10.03;;
14191;SDS011;7177;48.572;7.838;2023-02-08T11:46:01;15.67;;;10.30;;
14191;SDS011;7177;48.572;7.838;2023-02-08T11:48:37;15.70;;;10.07;;
14191;SDS011;7177;48.572;7.838;2023-02-08T11:51:11;16.20;;;10.40;;
14191;SDS011;7177;48.572;7.838;2023-02-08T11:53:47;14.47;;;9.33;;
14191;SDS011;7177;48.572;7.838;2023-02-08T11:56:20;17.77;;;10.37;;
14191;SDS011;7177;48.572;7.838;2023-02-08T12:01:33;17.30;;;10.60;;
14191;SDS011;7177;48.572;7.838;2023-02-08T12:04:02;15.37;;;10.60;;
14191;SDS011;7177;48.572;7.838;2023-02-08T12:15:35;14.13;;;9.17;;
14191;SDS011;7177;48.572;7.838;2023-02-08T12:23:41;15.43;;;9.20;;
14191;SDS011;7177;48.572;7.838;2023-02-08T12:26:15;12.97;;;9.30;;
14191;SDS011;7177;48.572;7.838;2023-02-08T12:29:07;16.07;;;10.43;;
14191;SDS011;7177;48.572;7.838;2023-02-08T12:31:47;11.90;;;9.47;;
14191;SDS011;7177;48.572;7.838;2023-02-08T12:46:02;14.13;;;9.50;;
14191;SDS011;7177;48.572;7.838;2023-02-08T12:54:15;14.10;;;9.80;;
14191;SDS011;7177;48.572;7.838;2023-02-08T12:56:51;17.47;;;9.60;;
14191;SDS011;7177;48.572;7.838;2023-02-08T12:59:23;13.13;;;9.00;;
14191;SDS011;7177;48.572;7.838;2023-02-08T13:01:58;14.97;;;9.70;;
14191;SDS011;7177;48.572;7.838;2023-02-08T13:04:34;14.13;;;9.33;;
14191;SDS011;7177;48.572;7.838;2023-02-08T13:07:06;15.93;;;11.00;;
14191;SDS011;7177;48.572;7.838;2023-02-08T13:09:47;13.13;;;9.27;;
14191;SDS011;7177;48.572;7.838;2023-02-08T13:12:23;14.83;;;10.13;;
14191;SDS011;7177;48.572;7.838;2023-02-08T13:14:53;13.17;;;9.57;;
14191;SDS011;7177;48.572;7.838;2023-02-08T13:17:28;15.57;;;8.90;;
14191;SDS011;7177;48.572;7.838;2023-02-08T13:20:19;12.83;;;8.60;;
14191;SDS011;7177;48.572;7.838;2023-02-08T13:22:53;13.97;;;9.13;;
14191;SDS011;7177;48.572;7.838;2023-02-08T13:25:28;13.77;;;9.23;;
14191;SDS011;7177;48.572;7.838;2023-02-08T13:28:00;13.57;;;8.97;;
14191;SDS011;7177;48.572;7.838;2023-02-08T13:30:31;18.67;;;10.93;;
14191;SDS011;7177;48.572;7.838;2023-02-08T13:33:00;13.70;;;9.37;;
14191;SDS011;7177;48.572;7.838;2023-02-08T13:35:36;14.30;;;8.13;;
14191;SDS011;7177;48.572;7.838;2023-02-08T13:38:05;15.33;;;8.90;;
14191;SDS011;7177;48.572;7.838;2023-02-08T13:40:41;12.50;;;9.20;;
14191;SDS011;7177;48.572;7.838;2023-02-08T13:43:24;15.03;;;9.77;;
14191;SDS011;7177;48.572;7.838;2023-02-08T13:45:58;12.23;;;9.03;;
14191;SDS011;7177;48.572;7.838;2023-02-08T13:48:24;12.97;;;9.20;;
14191;SDS011;7177;48.572;7.838;2023-02-08T13:50:54;13.83;;;8.93;;
14191;SDS011;7177;48.572;7.838;2023-02-08T13:56:08;15.23;;;9.30;;
14191;SDS011;7177;48.572;7.838;2023-02-08T13:58:36;18.60;;;11.53;;
14191;SDS011;7177;48.572;7.838;2023-02-08T14:04:13;26.43;;;17.17;;
14191;SDS011;7177;48.572;7.838;2023-02-08T14:09:21;52.17;;;26.47;;
14191;SDS011;7177;48.572;7.838;2023-02-08T14:11:53;22.77;;;12.10;;
14191;SDS011;7177;48.572;7.838;2023-02-08T14:14:32;16.40;;;10.33;;
14191;SDS011;7177;48.572;7.838;2023-02-08T14:17:16;13.20;;;9.37;;
14191;SDS011;7177;48.572;7.838;2023-02-08T14:20:00;16.47;;;9.67;;
14191;SDS011;7177;48.572;7.838;2023-02-08T14:22:34;14.10;;;9.43;;
14191;SDS011;7177;48.572;7.838;2023-02-08T14:25:07;13.23;;;9.50;;
14191;SDS011;7177;48.572;7.838;2023-02-08T14:27:48;16.77;;;10.20;;
14191;SDS011;7177;48.572;7.838;2023-02-08T14:32:48;13.70;;;9.53;;
14191;SDS011;7177;48.572;7.838;2023-02-08T14:35:29;12.67;;;9.10;;
14191;SDS011;7177;48.572;7.838;2023-02-08T14:45:43;14.37;;;9.17;;
14191;SDS011;7177;48.572;7.838;2023-02-08T14:48:25;14.47;;;9.53;;
14191;SDS011;7177;48.572;7.838;2023-02-08T14:56:22;25.63;;;14.50;;
14191;SDS011;7177;48.572;7.838;2023-02-08T14:58:57;15.63;;;10.10;;
14191;SDS011;7177;48.572;7.838;2023-02-08T15:03:52;16.83;;;10.30;;
14191;SDS011;7177;48.572;7.838;2023-02-08T15:09:01;18.83;;;9.60;;
14191;SDS011;7177;48.572;7.838;2023-02-08T15:11:29;14.80;;;9.50;;
14191;SDS011;7177;48.572;7.838;2023-02-08T15:13:56;15.90;;;9.37;;
14191;SDS011;7177;48.572;7.838;2023-02-08T15:16:26;17.40;;;9.97;;
14191;SDS011;7177;48.572;7.838;2023-02-08T15:18:57;17.83;;;9.70;;
14191;SDS011;7177;48.572;7.838;2023-02-08T15:21:25;17.00;;;10.03;;
14191;SDS011;7177;48.572;7.838;2023-02-08T15:23:59;17.93;;;9.67;;
14191;SDS011;7177;48.572;7.838;2023-02-08T15:26:26;17.20;;;10.47;;
14191;SDS011;7177;48.572;7.838;2023-02-08T15:28:52;17.83;;;10.93;;
14191;SDS011;7177;48.572;7.838;2023-02-08T15:31:19;13.47;;;9.43;;
14191;SDS011;7177;48.572;7.838;2023-02-08T15:33:52;13.83;;;9.53;;
14191;SDS011;7177;48.572;7.838;2023-02-08T15:36:21;15.20;;;9.70;;
14191;SDS011;7177;48.572;7.838;2023-02-08T15:39:00;14.57;;;9.50;;
14191;SDS011;7177;48.572;7.838;2023-02-08T15:41:33;19.20;;;10.13;;
14191;SDS011;7177;48.572;7.838;2023-02-08T15:46:39;16.13;;;9.40;;
14191;SDS011;7177;48.572;7.838;2023-02-08T15:49:06;16.47;;;9.77;;
14191;SDS011;7177;48.572;7.838;2023-02-08T15:51:39;13.73;;;8.60;;
14191;SDS011;7177;48.572;7.838;2023-02-08T15:54:05;18.07;;;10.70;;
14191;SDS011;7177;48.572;7.838;2023-02-08T15:56:33;17.23;;;10.37;;
14191;SDS011;7177;48.572;7.838;2023-02-08T15:59:01;16.67;;;10.60;;
14191;SDS011;7177;48.572;7.838;2023-02-08T16:01:28;15.88;;;9.43;;
14191;SDS011;7177;48.572;7.838;2023-02-08T16:03:54;17.70;;;10.00;;
14191;SDS011;7177;48.572;7.838;2023-02-08T16:06:24;14.65;;;9.88;;
14191;SDS011;7177;48.572;7.838;2023-02-08T16:08:54;16.87;;;9.50;;
14191;SDS011;7177;48.572;7.838;2023-02-08T16:13:49;16.83;;;10.87;;
14191;SDS011;7177;48.572;7.838;2023-02-08T16:18:57;17.67;;;9.85;;
14191;SDS011;7177;48.572;7.838;2023-02-08T16:23:59;16.33;;;10.43;;
14191;SDS011;7177;48.572;7.838;2023-02-08T16:29:32;19.50;;;12.73;;
14191;SDS011;7177;48.572;7.838;2023-02-08T16:32:05;18.67;;;12.23;;
14191;SDS011;7177;48.572;7.838;2023-02-08T16:34:36;20.23;;;11.90;;
14191;SDS011;7177;48.572;7.838;2023-02-08T16:37:04;24.17;;;14.80;;
14191;SDS011;7177;48.572;7.838;2023-02-08T16:42:18;13.75;;;9.63;;
14191;SDS011;7177;48.572;7.838;2023-02-08T16:45:46;14.55;;;9.73;;
14191;SDS011;7177;48.572;7.838;2023-02-08T16:50:17;13.75;;;10.10;;
14191;SDS011;7177;48.572;7.838;2023-02-08T16:52:50;14.95;;;10.30;;
14191;SDS011;7177;48.572;7.838;2023-02-08T16:55:25;17.20;;;10.73;;
14191;SDS011;7177;48.572;7.838;2023-02-08T16:57:53;20.73;;;12.63;;
14191;SDS011;7177;48.572;7.838;2023-02-08T17:00:25;19.70;;;11.65;;
14191;SDS011;7177;48.572;7.838;2023-02-08T17:02:59;18.10;;;10.35;;
14191;SDS011;7177;48.572;7.838;2023-02-08T17:05:26;17.27;;;10.27;;
14191;SDS011;7177;48.572;7.838;2023-02-08T17:07:55;17.40;;;10.95;;
14191;SDS011;7177;48.572;7.838;2023-02-08T17:10:24;16.80;;;11.57;;
14191;SDS011;7177;48.572;7.838;2023-02-08T17:12:51;20.85;;;12.77;;
14191;SDS011;7177;48.572;7.838;2023-02-08T17:15:17;26.00;;;14.65;;
14191;SDS011;7177;48.572;7.838;2023-02-08T17:17:44;21.60;;;13.82;;
14191;SDS011;7177;48.572;7.838;2023-02-08T17:20:15;22.15;;;14.07;;
14191;SDS011;7177;48.572;7.838;2023-02-08T17:22:43;21.88;;;14.32;;